Bob Shea Ex: Big Bob — WCY5041 — position and weather

sailwx.info

Track history (hours):
 
Tides and Currents Weather Stations Pressure Air Temp Water Temp Dewpoint Dewpoint Depression Visibility Wind Speed Wind Dir Waves Ship Positions

Bob Shea Ex: Big Bob

Owner: BLESSEY ENTERPRISES INC, HARAHAN, LA. More information available from US FCC via Universal Licensing System and Coast Guard Vessel Documentation Center.

Last reported at 2018-Jun-17 01:13 UTC. Time now 2018-Jun-20 05:17 UTC.
Position N 37°38' W 076°25'.

Length 16 m; draft 2.6 m.

Type: Towing. MMSI: 366934030.

Date/timePositionNaut miles runAvg speedWind from/ knotsBaromVisibWave heightAir tempDewpointWater temp
2018-Jun-17 01:13N 37°38' W 076°25'69 2.8
2018-Jun-16 00:48N 38°47' W 076°27'2 7.3
2018-Jun-16 00:30N 38°49' W 076°27'3 6.9
2018-Jun-16 00:01N 38°52' W 076°25'3 6.8
2018-Jun-15 23:30N 38°55' W 076°24'4 7.0
2018-Jun-15 23:00N 38°59' W 076°23'3 6.3
2018-Jun-15 22:30N 39°02' W 076°23'9 6.7
2018-Jun-15 21:12N 39°10' W 076°26'1 6.3
2018-Jun-15 21:00N 39°11' W 076°27'3 6.8
2018-Jun-15 20:31N 39°13' W 076°31'3 5.4
2018-Jun-15 20:01N 39°13' W 076°35'0 0.6
2018-Jun-15 19:31N 39°13' W 076°35'0 0.0
2018-Jun-15 19:00N 39°13' W 076°35'0 0.0
2018-Jun-15 18:30N 39°13' W 076°35'0 0.0
2018-Jun-15 18:00N 39°13' W 076°35'0 0.0
2018-Jun-15 17:30N 39°13' W 076°35'0 0.0
2018-Jun-15 17:00N 39°13' W 076°35'0 0.0
2018-Jun-15 16:30N 39°13' W 076°35'0 0.0
2018-Jun-15 16:01N 39°13' W 076°35'0 0.0
2018-Jun-15 15:30N 39°13' W 076°35'0 0.0
2018-Jun-15 15:00N 39°13' W 076°35'0 0.0
2018-Jun-15 14:31N 39°13' W 076°35'0 0.0
2018-Jun-15 13:58N 39°13' W 076°35'0 0.0
2018-Jun-15 13:30N 39°13' W 076°35'0 0.0
2018-Jun-15 13:00N 39°13' W 076°35'0 0.0
2018-Jun-15 12:29N 39°13' W 076°35'0 0.0
2018-Jun-15 12:00N 39°13' W 076°35'0 0.0
2018-Jun-15 11:30N 39°13' W 076°35'0 0.0
2018-Jun-15 11:00N 39°13' W 076°35'0 0.0
2018-Jun-15 10:30N 39°13' W 076°35'0 0.0
2018-Jun-15 10:00N 39°13' W 076°35'0 0.0
2018-Jun-15 09:25N 39°13' W 076°35'0 0.0
2018-Jun-15 09:00N 39°13' W 076°35'0 0.0
2018-Jun-15 08:28N 39°13' W 076°35'0 0.0
2018-Jun-15 07:58N 39°13' W 076°35'0 0.0
2018-Jun-15 07:30N 39°13' W 076°35'0 0.0
2018-Jun-15 07:01N 39°13' W 076°35'0 0.0
2018-Jun-15 06:30N 39°13' W 076°35'0 0.0
2018-Jun-15 06:00N 39°13' W 076°35'0 0.0
2018-Jun-15 05:30N 39°13' W 076°35'0 0.0
2018-Jun-15 05:01N 39°13' W 076°35'0 0.0
2018-Jun-15 04:30N 39°13' W 076°35'0 0.0
2018-Jun-15 04:00N 39°13' W 076°35'0 0.0
2018-Jun-15 03:30N 39°13' W 076°35'0 0.0
2018-Jun-15 03:01N 39°13' W 076°35'0 0.0
2018-Jun-15 02:27N 39°13' W 076°35'0 0.0
2018-Jun-15 02:01N 39°13' W 076°35'0 0.0
2018-Jun-15 01:31N 39°13' W 076°35'0 0.0
2018-Jun-15 01:00N 39°13' W 076°35'0 0.0
2018-Jun-15 00:31N 39°13' W 076°35'0 0.0
2018-Jun-15 00:00N 39°13' W 076°35'0 0.0
2018-Jun-14 23:30N 39°13' W 076°35'0 0.0
2018-Jun-14 23:00N 39°13' W 076°35'0 0.0
2018-Jun-14 22:30N 39°13' W 076°35'0 0.0
2018-Jun-14 22:01N 39°13' W 076°35'0 0.0
2018-Jun-14 21:30N 39°13' W 076°35'0 0.0
2018-Jun-14 21:00N 39°13' W 076°35'0 0.0
2018-Jun-14 20:30N 39°13' W 076°35'0 0.0
2018-Jun-14 20:00N 39°13' W 076°35'0 0.0
2018-Jun-14 19:30N 39°13' W 076°35'0 0.0
2018-Jun-14 19:00N 39°13' W 076°35'0 0.0
2018-Jun-14 18:30N 39°13' W 076°35'0 0.0
2018-Jun-14 18:00N 39°13' W 076°35'0 0.0
2018-Jun-14 17:30N 39°13' W 076°35'0 0.0
2018-Jun-14 17:00N 39°13' W 076°35'0 0.0
2018-Jun-14 16:30N 39°13' W 076°35'0 0.0
2018-Jun-14 16:01N 39°13' W 076°35'0 0.0
2018-Jun-14 15:31N 39°13' W 076°35'0 0.0
2018-Jun-14 15:00N 39°13' W 076°35'0 0.0
2018-Jun-14 14:30N 39°13' W 076°35'0 0.0
2018-Jun-14 14:00N 39°13' W 076°35'0 0.0
2018-Jun-14 13:31N 39°13' W 076°35'0 0.1
2018-Jun-14 13:00N 39°13' W 076°35'2 3.3
2018-Jun-14 12:30N 39°13' W 076°33'4 7.0
2018-Jun-14 12:00N 39°12' W 076°29'4 7.1
2018-Jun-14 11:30N 39°10' W 076°25'4 7.4
2018-Jun-14 10:59N 39°06' W 076°24'4 8.2
2018-Jun-14 10:31N 39°02' W 076°23'4 7.7
2018-Jun-14 09:59N 38°58' W 076°23'4 7.8
2018-Jun-14 09:30N 38°54' W 076°25'4 7.8
2018-Jun-14 09:00N 38°51' W 076°26'  
2018-Jun-10 01:21N 37°37' W 076°25'45 5.9
2018-Jun-09 17:45N 36°52' W 076°20'2 6.7
2018-Jun-09 17:28N 36°51' W 076°18'3 6.5
2018-Jun-09 17:00N 36°48' W 076°17'1 2.3
2018-Jun-09 16:30N 36°49' W 076°17'3 6.0
2018-Jun-09 16:00N 36°52' W 076°19'111 4.1
2018-Jun-08 13:04N 38°38' W 075°37'0 0.0
2018-Jun-08 12:44N 38°38' W 075°37'0 0.0
2018-Jun-08 12:30N 38°38' W 075°37'0 0.0
2018-Jun-08 11:59N 38°38' W 075°37'0 0.0
2018-Jun-08 11:30N 38°38' W 075°37'0 0.0
2018-Jun-08 10:59N 38°38' W 075°37'0 0.0
2018-Jun-08 10:30N 38°38' W 075°37'0 0.1
2018-Jun-08 10:00N 38°38' W 075°37'0 0.0
2018-Jun-08 09:23N 38°38' W 075°37'0 0.0
2018-Jun-08 09:00N 38°38' W 075°37'0 0.0
2018-Jun-08 08:30N 38°38' W 075°37'0 0.0
2018-Jun-08 07:57N 38°38' W 075°37'0 0.0
2018-Jun-08 07:25N 38°38' W 075°37'0 0.6
2018-Jun-08 07:00N 38°38' W 075°37'0 0.0
2018-Jun-08 06:30N 38°38' W 075°37'0 0.0
2018-Jun-08 06:00N 38°38' W 075°37'0 0.0
2018-Jun-08 05:30N 38°38' W 075°37'0 0.0
2018-Jun-08 04:55N 38°38' W 075°37'0 0.0
2018-Jun-08 04:30N 38°38' W 075°37'0 0.0
2018-Jun-08 04:00N 38°38' W 075°37'0 0.0
2018-Jun-08 03:30N 38°38' W 075°37'0 0.0
2018-Jun-08 02:46N 38°38' W 075°37'0 0.0
2018-Jun-08 02:30N 38°38' W 075°37'0 0.0
2018-Jun-08 02:00N 38°38' W 075°37'0 0.0
2018-Jun-07 11:36N 38°38' W 075°37'0 0.0
2018-Jun-07 07:58N 38°38' W 075°37'0 0.0
2018-Jun-07 07:24N 38°38' W 075°37'0 0.0
2018-Jun-07 07:00N 38°38' W 075°37'0 0.0
2018-Jun-07 06:30N 38°38' W 075°37'0 0.0
2018-Jun-07 04:43N 38°38' W 075°37'3 2.1
2018-Jun-07 03:16N 38°36' W 075°40'1 4.4
2018-Jun-07 03:00N 38°35' W 075°40'  
Track history (hours):
 
Tides and Currents Weather Stations Pressure Air Temp Water Temp Dewpoint Dewpoint Depression Visibility Wind Speed Wind Dir Waves Ship Positions

Bob Shea Ex: Big Bob

Owner: BLESSEY ENTERPRISES INC, HARAHAN, LA. More information available from US FCC via Universal Licensing System and Coast Guard Vessel Documentation Center.

Last reported at 2018-Jun-17 01:13 UTC. Time now 2018-Jun-20 05:17 UTC.
Position N 37°38' W 076°25'.

Length 16 m; draft 2.6 m.

Type: Towing. MMSI: 366934030.

Date/timePositionNaut miles runAvg speedWind from/ knotsBaromVisibWave heightAir tempDewpointWater temp
2018-Jun-17 01:13N 37°38' W 076°25'69 2.8
2018-Jun-16 00:48N 38°47' W 076°27'2 7.3
2018-Jun-16 00:30N 38°49' W 076°27'3 6.9
2018-Jun-16 00:01N 38°52' W 076°25'3 6.8
2018-Jun-15 23:30N 38°55' W 076°24'4 7.0
2018-Jun-15 23:00N 38°59' W 076°23'3 6.3
2018-Jun-15 22:30N 39°02' W 076°23'9 6.7
2018-Jun-15 21:12N 39°10' W 076°26'1 6.3
2018-Jun-15 21:00N 39°11' W 076°27'3 6.8
2018-Jun-15 20:31N 39°13' W 076°31'3 5.4
2018-Jun-15 20:01N 39°13' W 076°35'0 0.6
2018-Jun-15 19:31N 39°13' W 076°35'0 0.0
2018-Jun-15 19:00N 39°13' W 076°35'0 0.0
2018-Jun-15 18:30N 39°13' W 076°35'0 0.0
2018-Jun-15 18:00N 39°13' W 076°35'0 0.0
2018-Jun-15 17:30N 39°13' W 076°35'0 0.0
2018-Jun-15 17:00N 39°13' W 076°35'0 0.0
2018-Jun-15 16:30N 39°13' W 076°35'0 0.0
2018-Jun-15 16:01N 39°13' W 076°35'0 0.0
2018-Jun-15 15:30N 39°13' W 076°35'0 0.0
2018-Jun-15 15:00N 39°13' W 076°35'0 0.0
2018-Jun-15 14:31N 39°13' W 076°35'0 0.0
2018-Jun-15 13:58N 39°13' W 076°35'0 0.0
2018-Jun-15 13:30N 39°13' W 076°35'0 0.0
2018-Jun-15 13:00N 39°13' W 076°35'0 0.0
2018-Jun-15 12:29N 39°13' W 076°35'0 0.0
2018-Jun-15 12:00N 39°13' W 076°35'0 0.0
2018-Jun-15 11:30N 39°13' W 076°35'0 0.0
2018-Jun-15 11:00N 39°13' W 076°35'0 0.0
2018-Jun-15 10:30N 39°13' W 076°35'0 0.0
2018-Jun-15 10:00N 39°13' W 076°35'0 0.0
2018-Jun-15 09:25N 39°13' W 076°35'0 0.0
2018-Jun-15 09:00N 39°13' W 076°35'0 0.0
2018-Jun-15 08:28N 39°13' W 076°35'0 0.0
2018-Jun-15 07:58N 39°13' W 076°35'0 0.0
2018-Jun-15 07:30N 39°13' W 076°35'0 0.0
2018-Jun-15 07:01N 39°13' W 076°35'0 0.0
2018-Jun-15 06:30N 39°13' W 076°35'0 0.0
2018-Jun-15 06:00N 39°13' W 076°35'0 0.0
2018-Jun-15 05:30N 39°13' W 076°35'0 0.0
2018-Jun-15 05:01N 39°13' W 076°35'0 0.0
2018-Jun-15 04:30N 39°13' W 076°35'0 0.0
2018-Jun-15 04:00N 39°13' W 076°35'0 0.0
2018-Jun-15 03:30N 39°13' W 076°35'0 0.0
2018-Jun-15 03:01N 39°13' W 076°35'0 0.0
2018-Jun-15 02:27N 39°13' W 076°35'0 0.0
2018-Jun-15 02:01N 39°13' W 076°35'0 0.0
2018-Jun-15 01:31N 39°13' W 076°35'0 0.0
2018-Jun-15 01:00N 39°13' W 076°35'0 0.0
2018-Jun-15 00:31N 39°13' W 076°35'0 0.0
2018-Jun-15 00:00N 39°13' W 076°35'0 0.0
2018-Jun-14 23:30N 39°13' W 076°35'0 0.0
2018-Jun-14 23:00N 39°13' W 076°35'0 0.0
2018-Jun-14 22:30N 39°13' W 076°35'0 0.0
2018-Jun-14 22:01N 39°13' W 076°35'0 0.0
2018-Jun-14 21:30N 39°13' W 076°35'0 0.0
2018-Jun-14 21:00N 39°13' W 076°35'0 0.0
2018-Jun-14 20:30N 39°13' W 076°35'0 0.0
2018-Jun-14 20:00N 39°13' W 076°35'0 0.0
2018-Jun-14 19:30N 39°13' W 076°35'0 0.0
2018-Jun-14 19:00N 39°13' W 076°35'0 0.0
2018-Jun-14 18:30N 39°13' W 076°35'0 0.0
2018-Jun-14 18:00N 39°13' W 076°35'0 0.0
2018-Jun-14 17:30N 39°13' W 076°35'0 0.0
2018-Jun-14 17:00N 39°13' W 076°35'0 0.0
2018-Jun-14 16:30N 39°13' W 076°35'0 0.0
2018-Jun-14 16:01N 39°13' W 076°35'0 0.0
2018-Jun-14 15:31N 39°13' W 076°35'0 0.0
2018-Jun-14 15:00N 39°13' W 076°35'0 0.0
2018-Jun-14 14:30N 39°13' W 076°35'0 0.0
2018-Jun-14 14:00N 39°13' W 076°35'0 0.0
2018-Jun-14 13:31N 39°13' W 076°35'0 0.1
2018-Jun-14 13:00N 39°13' W 076°35'2 3.3
2018-Jun-14 12:30N 39°13' W 076°33'4 7.0
2018-Jun-14 12:00N 39°12' W 076°29'4 7.1
2018-Jun-14 11:30N 39°10' W 076°25'4 7.4
2018-Jun-14 10:59N 39°06' W 076°24'4 8.2
2018-Jun-14 10:31N 39°02' W 076°23'4 7.7
2018-Jun-14 09:59N 38°58' W 076°23'4 7.8
2018-Jun-14 09:30N 38°54' W 076°25'4 7.8
2018-Jun-14 09:00N 38°51' W 076°26'  
2018-Jun-10 01:21N 37°37' W 076°25'45 5.9
2018-Jun-09 17:45N 36°52' W 076°20'2 6.7
2018-Jun-09 17:28N 36°51' W 076°18'3 6.5
2018-Jun-09 17:00N 36°48' W 076°17'1 2.3
2018-Jun-09 16:30N 36°49' W 076°17'3 6.0
2018-Jun-09 16:00N 36°52' W 076°19'111 4.1
2018-Jun-08 13:04N 38°38' W 075°37'0 0.0
2018-Jun-08 12:44N 38°38' W 075°37'0 0.0
2018-Jun-08 12:30N 38°38' W 075°37'0 0.0
2018-Jun-08 11:59N 38°38' W 075°37'0 0.0
2018-Jun-08 11:30N 38°38' W 075°37'0 0.0
2018-Jun-08 10:59N 38°38' W 075°37'0 0.0
2018-Jun-08 10:30N 38°38' W 075°37'0 0.1
2018-Jun-08 10:00N 38°38' W 075°37'0 0.0
2018-Jun-08 09:23N 38°38' W 075°37'0 0.0
2018-Jun-08 09:00N 38°38' W 075°37'0 0.0
2018-Jun-08 08:30N 38°38' W 075°37'0 0.0
2018-Jun-08 07:57N 38°38' W 075°37'0 0.0
2018-Jun-08 07:25N 38°38' W 075°37'0 0.6
2018-Jun-08 07:00N 38°38' W 075°37'0 0.0
2018-Jun-08 06:30N 38°38' W 075°37'0 0.0
2018-Jun-08 06:00N 38°38' W 075°37'0 0.0
2018-Jun-08 05:30N 38°38' W 075°37'0 0.0
2018-Jun-08 04:55N 38°38' W 075°37'0 0.0
2018-Jun-08 04:30N 38°38' W 075°37'0 0.0
2018-Jun-08 04:00N 38°38' W 075°37'0 0.0
2018-Jun-08 03:30N 38°38' W 075°37'0 0.0
2018-Jun-08 02:46N 38°38' W 075°37'0 0.0
2018-Jun-08 02:30N 38°38' W 075°37'0 0.0
2018-Jun-08 02:00N 38°38' W 075°37'0 0.0
2018-Jun-07 11:36N 38°38' W 075°37'0 0.0
2018-Jun-07 07:58N 38°38' W 075°37'0 0.0
2018-Jun-07 07:24N 38°38' W 075°37'0 0.0
2018-Jun-07 07:00N 38°38' W 075°37'0 0.0
2018-Jun-07 06:30N 38°38' W 075°37'0 0.0
2018-Jun-07 04:43N 38°38' W 075°37'3 2.1
2018-Jun-07 03:16N 38°36' W 075°40'1 4.4
2018-Jun-07 03:00N 38°35' W 075°40'  

Dump ship's entire track history